Time;durP1;ratioP1;P1;durP2;ratioP2;P2;SDS_P1;SDS_P2;PMS_P1;PMS_P2;Temp;Humidity;BMP_temperature;BMP_pressure;BME280_temperature;BME280_humidity;BME280_pressure;Samples;Min_cycle;Max_cycle;Signal;HPM_P1;HPM_P2
2021/09/15 00:00:34;;;;;;;8.23;4.25;;;;;;;18.62;40.43;94104.53;4983171;28;20048;-76
2021/09/15 00:03:00;;;;;;;4.72;4.30;;;;;;;18.65;40.25;94101.09;4988515;28;20044;-76
2021/09/15 00:05:25;;;;;;;9.73;4.85;;;;;;;18.57;40.11;94091.34;4987518;28;20120;-76
2021/09/15 00:07:50;;;;;;;10.85;4.70;;;;;;;18.41;40.35;94080.66;4986110;28;20046;-76
2021/09/15 00:10:16;;;;;;;6.65;4.57;;;;;;;18.45;40.04;94091.47;4986135;28;20065;-76
2021/09/15 00:12:41;;;;;;;5.47;3.92;;;;;;;18.46;40.05;94093.03;4989042;28;20037;-76
2021/09/15 00:15:08;;;;;;;5.97;4.45;;;;;;;18.44;40.33;94098.78;4985351;28;20104;-75
2021/09/15 00:17:34;;;;;;;5.35;4.38;;;;;;;18.37;40.40;94087.88;4988148;28;20053;-76
2021/09/15 00:20:00;;;;;;;5.38;4.82;;;;;;;18.51;39.95;94098.16;4986781;28;20088;-76
2021/09/15 00:22:27;;;;;;;6.82;3.92;;;;;;;18.51;39.93;94090.06;4988757;28;20045;-77
2021/09/15 00:24:52;;;;;;;5.25;4.38;;;;;;;18.42;39.80;94094.91;4985716;28;20108;-76
2021/09/15 00:27:17;;;;;;;5.05;4.50;;;;;;;18.50;39.58;94099.28;4987486;28;20061;-76
2021/09/15 00:29:43;;;;;;;4.82;4.30;;;;;;;18.50;40.21;94096.59;4983702;28;20042;-76
2021/09/15 00:32:08;;;;;;;7.97;4.43;;;;;;;18.51;39.96;94098.16;4988001;28;20038;-76
2021/09/15 00:34:34;;;;;;;5.13;4.55;;;;;;;18.53;39.41;94106.63;4987634;28;20121;-76
2021/09/15 00:36:59;;;;;;;5.47;4.28;;;;;;;18.59;39.12;94105.22;4986178;28;20489;-76
2021/09/15 00:39:25;;;;;;;9.57;4.78;;;;;;;18.54;39.21;94102.81;4985767;28;20030;-76
2021/09/15 00:41:50;;;;;;;11.10;4.20;;;;;;;18.60;40.05;94108.69;4986398;28;20034;-76
2021/09/15 00:44:16;;;;;;;4.63;4.00;;;;;;;18.65;39.30;94111.88;4986248;28;20037;-76
2021/09/15 00:46:42;;;;;;;6.28;5.00;;;;;;;18.56;39.30;94110.53;4987179;28;20692;-76
2021/09/15 00:49:09;;;;;;;5.05;3.97;;;;;;;18.48;39.78;94110.41;4988485;28;20038;-76
2021/09/15 00:51:37;;;;;;;5.45;4.32;;;;;;;18.42;39.71;94114.53;4987880;28;20018;-76
2021/09/15 00:54:05;;;;;;;5.82;4.35;;;;;;;18.36;40.34;94115.16;4984544;28;20584;-78
2021/09/15 00:56:32;;;;;;;4.25;3.85;;;;;;;18.30;40.21;94114.66;4988551;28;20074;-76
2021/09/15 00:58:57;;;;;;;6.25;4.60;;;;;;;18.55;39.64;94120.53;4985064;28;20065;-76
2021/09/15 01:01:23;;;;;;;7.50;4.93;;;;;;;18.40;39.89;94124.09;4985642;28;20039;-76
2021/09/15 01:03:48;;;;;;;7.50;4.90;;;;;;;18.21;40.48;94116.00;4988645;28;20040;-76
2021/09/15 01:06:14;;;;;;;9.70;4.85;;;;;;;18.18;40.22;94122.09;5001324;28;20033;-76
2021/09/15 01:08:41;;;;;;;7.05;4.88;;;;;;;18.19;40.44;94123.63;4988799;28;20065;-77
2021/09/15 01:11:07;;;;;;;5.57;4.75;;;;;;;18.13;40.83;94122.38;4981661;28;20092;-76
2021/09/15 01:13:34;;;;;;;6.07;5.18;;;;;;;18.07;41.15;94116.50;4993197;28;20045;-76
2021/09/15 01:16:00;;;;;;;6.68;5.10;;;;;;;18.03;41.33;94115.66;4989100;28;20112;-76
2021/09/15 01:18:25;;;;;;;5.70;4.70;;;;;;;18.07;41.40;94121.09;4990529;28;20058;-76
2021/09/15 01:20:51;;;;;;;6.18;4.50;;;;;;;17.77;41.60;94081.22;4984989;28;20038;-76
2021/09/15 01:23:16;;;;;;;9.75;4.68;;;;;;;18.03;41.35;94119.13;4990669;28;20042;-76
2021/09/15 01:25:42;;;;;;;4.97;4.43;;;;;;;18.03;41.78;94119.13;5000944;28;20066;-76
2021/09/15 01:28:08;;;;;;;4.93;4.43;;;;;;;18.13;41.33;94123.16;4988865;28;20034;-76
2021/09/15 01:30:33;;;;;;;4.97;4.47;;;;;;;18.00;41.65;94111.72;4992843;28;20038;-76
2021/09/15 01:32:59;;;;;;;5.70;5.03;;;;;;;17.95;41.72;94124.69;4986936;28;20532;-76
2021/09/15 01:35:24;;;;;;;6.40;4.63;;;;;;;17.88;41.59;94119.91;4995499;28;20039;-76
2021/09/15 01:37:50;;;;;;;4.45;4.05;;;;;;;17.75;41.91;94104.22;4991096;28;20042;-76
2021/09/15 01:40:15;;;;;;;6.70;4.55;;;;;;;17.89;41.75;94132.22;4987616;28;20652;-76
2021/09/15 01:42:41;;;;;;;7.25;4.40;;;;;;;17.99;41.65;94136.31;4991565;28;20464;-76
2021/09/15 01:45:09;;;;;;;4.68;4.22;;;;;;;17.82;41.83;94131.28;4988354;28;20960;-76
2021/09/15 01:47:36;;;;;;;4.90;4.28;;;;;;;17.76;42.07;94135.38;4990511;28;20598;-76
2021/09/15 01:50:06;;;;;;;5.18;4.35;;;;;;;17.75;42.05;94134.59;4989765;28;20052;-77
2021/09/15 01:52:31;;;;;;;6.78;4.53;;;;;;;17.67;42.53;94130.19;4989765;28;20038;-76
2021/09/15 01:54:56;;;;;;;5.82;4.70;;;;;;;17.61;42.35;94132.34;4988493;28;20021;-76
2021/09/15 01:57:22;;;;;;;6.85;5.30;;;;;;;17.45;42.62;94123.50;4983470;28;20500;-76
2021/09/15 01:59:47;;;;;;;5.65;4.35;;;;;;;17.48;42.60;94135.50;4992440;28;20041;-76
2021/09/15 02:02:13;;;;;;;9.77;4.78;;;;;;;17.47;42.57;94136.63;4987083;28;20053;-76
2021/09/15 02:04:39;;;;;;;5.47;4.40;;;;;;;17.51;42.06;94132.88;4989056;28;20128;-76
2021/09/15 02:07:06;;;;;;;5.80;4.47;;;;;;;17.32;41.64;94081.75;4988964;28;20018;-76
2021/09/15 02:09:31;;;;;;;5.80;4.93;;;;;;;17.47;41.53;94113.22;4989176;28;20667;-76
2021/09/15 02:11:57;;;;;;;5.00;4.50;;;;;;;17.54;41.45;94126.03;4987742;28;20046;-76
2021/09/15 02:14:22;;;;;;;5.47;4.78;;;;;;;17.59;41.46;94123.09;4986810;28;20096;-76
2021/09/15 02:16:48;;;;;;;8.98;5.45;;;;;;;17.53;41.57;94102.97;4987461;28;20070;-76
2021/09/15 02:19:14;;;;;;;6.72;4.47;;;;;;;17.52;41.53;94104.09;4991031;28;20052;-76
2021/09/15 02:21:39;;;;;;;6.70;4.90;;;;;;;17.49;41.41;94107.50;4987100;28;20037;-76
2021/09/15 02:24:05;;;;;;;8.90;4.47;;;;;;;17.67;41.68;94124.81;4985116;28;20043;-76
2021/09/15 02:26:33;;;;;;;6.53;4.32;;;;;;;17.64;41.69;94120.13;4984740;28;20044;-77
2021/09/15 02:28:59;;;;;;;4.75;4.15;;;;;;;17.66;41.83;94125.94;4994095;28;20370;-75
2021/09/15 02:31:24;;;;;;;4.63;4.10;;;;;;;17.56;41.48;94099.56;4987598;28;20046;-75
2021/09/15 02:33:50;;;;;;;5.20;4.70;;;;;;;17.57;41.48;94114.59;4989666;28;20523;-75
2021/09/15 02:36:15;;;;;;;5.53;4.70;;;;;;;17.52;41.41;94112.16;4985999;28;20030;-75
2021/09/15 02:38:41;;;;;;;11.63;4.38;;;;;;;17.47;41.84;94109.72;4988727;28;20049;-76
2021/09/15 02:41:07;;;;;;;5.80;4.72;;;;;;;17.53;42.13;94124.47;4984942;28;20046;-76
2021/09/15 02:43:33;;;;;;;7.13;4.53;;;;;;;17.40;42.01;94128.41;4987198;28;20609;-77
2021/09/15 02:45:59;;;;;;;6.43;4.80;;;;;;;17.41;42.24;94127.25;4983356;28;20034;-76
2021/09/15 02:48:24;;;;;;;8.50;4.45;;;;;;;17.39;42.10;94111.50;4984464;28;20152;-79
2021/09/15 02:50:50;;;;;;;5.05;4.35;;;;;;;17.48;41.79;94116.69;4987859;28;20046;-76
2021/09/15 02:53:15;;;;;;;5.20;4.32;;;;;;;17.33;42.29;94114.78;4989610;28;20411;-76
2021/09/15 02:55:41;;;;;;;8.77;4.88;;;;;;;17.30;41.92;94127.03;4988313;28;20042;-76
2021/09/15 02:58:07;;;;;;;10.05;5.35;;;;;;;17.34;42.27;94137.84;4987936;28;20085;-76
2021/09/15 03:00:33;;;;;;;6.18;5.07;;;;;;;17.33;42.54;94131.69;4994603;28;20108;-76
2021/09/15 03:02:58;;;;;;;6.90;5.05;;;;;;;17.18;42.49;94114.44;4991847;28;20290;-76
2021/09/15 03:05:24;;;;;;;6.10;5.28;;;;;;;17.31;42.90;94127.78;4986276;28;20035;-76
2021/09/15 03:07:49;;;;;;;6.00;4.90;;;;;;;17.27;43.06;94127.69;4989540;28;20031;-76
2021/09/15 03:10:15;;;;;;;7.07;5.95;;;;;;;17.08;43.48;94123.00;4988800;28;20066;-76
2021/09/15 03:12:40;;;;;;;8.45;6.45;;;;;;;17.06;43.33;94127.16;4989464;28;20061;-75
2021/09/15 03:15:06;;;;;;;9.50;5.60;;;;;;;17.04;43.04;94124.03;4987778;28;20513;-75
2021/09/15 03:17:32;;;;;;;8.20;5.78;;;;;;;17.03;43.55;94112.50;4988673;28;20050;-75
2021/09/15 03:19:58;;;;;;;7.47;5.50;;;;;;;17.08;43.53;94141.78;4989265;28;20084;-76
2021/09/15 03:22:23;;;;;;;7.93;5.15;;;;;;;17.09;43.46;94139.91;4991528;28;20580;-76
2021/09/15 03:24:48;;;;;;;6.68;5.38;;;;;;;16.95;43.09;94126.88;4985293;28;20476;-76
2021/09/15 03:27:14;;;;;;;7.43;5.15;;;;;;;16.84;43.40;94131.19;4988679;28;20025;-76
2021/09/15 03:29:39;;;;;;;6.97;4.82;;;;;;;16.94;43.42;94152.19;4990012;28;20057;-75
2021/09/15 03:32:05;;;;;;;7.25;4.75;;;;;;;16.96;43.45;94146.47;4986916;28;20675;-75
2021/09/15 03:34:30;;;;;;;5.60;4.93;;;;;;;16.91;43.54;94139.44;4985893;28;20048;-76
2021/09/15 03:36:56;;;;;;;6.90;4.78;;;;;;;16.80;43.21;94130.34;4988928;28;20540;-75
2021/09/15 03:39:22;;;;;;;6.72;4.70;;;;;;;16.72;43.98;94128.59;4989089;28;20030;-76
2021/09/15 03:41:48;;;;;;;5.85;5.15;;;;;;;16.79;43.99;94158.31;4991469;28;20030;-75
2021/09/15 03:44:13;;;;;;;8.55;5.00;;;;;;;16.80;43.66;94157.19;4983453;28;20053;-75
2021/09/15 03:46:39;;;;;;;10.18;5.72;;;;;;;16.74;44.27;94159.34;4987562;28;20574;-75
2021/09/15 03:49:04;;;;;;;7.18;5.32;;;;;;;16.61;43.88;94149.00;4986799;28;20030;-76
2021/09/15 03:51:31;;;;;;;11.52;5.68;;;;;;;16.59;44.53;94161.97;4989380;28;20029;-75
2021/09/15 03:53:57;;;;;;;7.45;5.38;;;;;;;16.47;44.41;94151.31;4989553;28;20505;-77
2021/09/15 03:56:22;;;;;;;7.55;5.10;;;;;;;16.48;44.52;94144.78;4985205;28;20045;-76
2021/09/15 03:58:48;;;;;;;8.48;5.22;;;;;;;16.52;44.09;94156.44;4987759;28;20038;-76
2021/09/15 04:01:14;;;;;;;6.70;5.70;;;;;;;16.47;44.51;94160.13;4983365;28;20049;-75
2021/09/15 04:03:40;;;;;;;9.15;5.45;;;;;;;16.33;44.70;94142.84;4994258;28;20030;-75
2021/09/15 04:06:06;;;;;;;7.47;5.00;;;;;;;16.47;44.47;94164.72;4991937;28;20041;-76
2021/09/15 04:08:31;;;;;;;7.25;5.28;;;;;;;16.48;44.42;94161.69;4986005;28;20409;-75
2021/09/15 04:10:56;;;;;;;9.63;5.63;;;;;;;16.27;44.42;94148.44;4985062;28;21383;-76
2021/09/15 04:13:22;;;;;;;6.13;5.28;;;;;;;16.43;44.30;94158.47;4993751;28;20103;-75
2021/09/15 04:15:47;;;;;;;8.75;5.93;;;;;;;16.40;44.52;94164.50;4985693;28;20026;-76
2021/09/15 04:18:13;;;;;;;7.15;5.55;;;;;;;16.52;44.26;94175.22;4986429;28;20045;-76
2021/09/15 04:20:40;;;;;;;12.50;5.97;;;;;;;16.66;44.08;94173.72;4986114;28;20036;-75
2021/09/15 04:23:14;;;;;;;8.95;5.75;;;;;;;16.71;44.09;94180.75;4984847;28;20436;-75
2021/09/15 04:33:37;;;;;;;10.85;6.93;;;;;;;16.15;45.10;94142.31;4985770;28;20485;-75
2021/09/15 04:36:02;;;;;;;8.20;6.18;;;;;;;16.50;44.93;94191.66;4985609;28;20042;-77
2021/09/15 04:38:28;;;;;;;9.48;7.00;;;;;;;16.47;45.13;94188.88;4985570;28;20132;-76
2021/09/15 04:40:53;;;;;;;9.32;5.95;;;;;;;16.67;44.54;94195.97;4992159;28;20043;-76
2021/09/15 04:43:19;;;;;;;7.43;5.60;;;;;;;16.98;44.54;94201.41;4982405;28;20158;-76
2021/09/15 04:45:44;;;;;;;8.80;6.40;;;;;;;16.98;44.04;94195.25;4987044;28;20029;-76
2021/09/15 04:48:09;;;;;;;12.52;6.65;;;;;;;16.79;44.40;94181.69;4984147;28;20466;-76
2021/09/15 04:50:35;;;;;;;14.52;6.15;;;;;;;16.87;44.30;94197.66;4983788;28;20041;-76
2021/09/15 04:53:00;;;;;;;9.93;5.50;;;;;;;17.09;44.43;94207.84;4989003;28;20119;-76
2021/09/15 04:55:29;;;;;;;14.93;7.97;;;;;;;16.93;45.04;94207.03;4988794;28;20045;-76
2021/09/15 04:57:54;;;;;;;11.10;7.32;;;;;;;17.02;44.98;94213.03;4988274;28;20424;-76
2021/09/15 05:00:19;;;;;;;12.88;7.32;;;;;;;16.96;44.89;94210.97;4986761;28;20022;-76
2021/09/15 05:02:45;;;;;;;14.65;8.02;;;;;;;16.94;45.08;94203.22;4991330;28;20039;-75
2021/09/15 05:05:10;;;;;;;16.55;8.25;;;;;;;17.06;44.80;94213.16;4983256;28;20054;-76
2021/09/15 05:07:35;;;;;;;14.85;8.45;;;;;;;17.12;45.03;94209.84;4984713;28;20537;-75
2021/09/15 05:10:01;;;;;;;13.85;8.02;;;;;;;17.16;45.07;94202.69;4986169;28;20087;-75
2021/09/15 05:12:26;;;;;;;17.27;9.05;;;;;;;17.36;44.69;94200.09;4986638;28;20025;-75
2021/09/15 05:14:54;;;;;;;16.45;9.68;;;;;;;17.40;44.43;94201.00;4984524;28;20113;-74
2021/09/15 05:17:21;;;;;;;18.50;9.73;;;;;;;17.50;43.18;94189.72;4987396;28;20578;-76
2021/09/15 05:19:46;;;;;;;14.45;8.90;;;;;;;17.58;43.27;94197.59;4994013;28;20041;-75
2021/09/15 05:22:11;;;;;;;15.35;10.30;;;;;;;17.66;43.41;94197.75;4987418;28;20029;-76
2021/09/15 05:24:37;;;;;;;16.15;10.55;;;;;;;17.73;43.12;94176.44;4986883;28;20168;-74
2021/09/15 05:27:02;;;;;;;19.02;10.70;;;;;;;17.90;42.69;94200.25;4984255;28;20049;-75
2021/09/15 05:29:28;;;;;;;21.75;11.43;;;;;;;17.86;42.67;94199.41;4985943;28;20129;-75
2021/09/15 05:31:53;;;;;;;15.52;10.50;;;;;;;17.99;42.18;94207.03;4986062;28;20173;-75
2021/09/15 05:34:19;;;;;;;15.93;11.35;;;;;;;18.01;42.06;94215.56;4989687;28;20042;-76
2021/09/15 05:36:44;;;;;;;19.45;12.15;;;;;;;18.00;41.70;94218.59;4988104;28;20467;-76
2021/09/15 05:39:09;;;;;;;17.52;10.93;;;;;;;17.79;41.81;94197.34;4984835;28;20259;-76
2021/09/15 05:41:35;;;;;;;21.13;12.10;;;;;;;17.94;42.08;94215.38;4986514;28;20544;-77
2021/09/15 05:44:00;;;;;;;28.23;11.52;;;;;;;18.05;42.09;94210.25;4985998;28;20407;-77
2021/09/15 05:46:27;;;;;;;26.50;13.30;;;;;;;17.92;42.60;94208.78;4984147;28;20042;-76
2021/09/15 05:48:52;;;;;;;25.65;11.93;;;;;;;17.69;42.92;94224.78;4999232;28;20381;-77
2021/09/15 05:51:17;;;;;;;23.80;12.85;;;;;;;17.86;43.05;94216.31;4985902;28;20761;-76
2021/09/15 05:53:43;;;;;;;21.58;12.50;;;;;;;17.62;43.12;94197.69;4985366;28;20034;-76
2021/09/15 05:56:09;;;;;;;19.08;10.95;;;;;;;17.88;43.74;94206.00;4985628;28;20434;-76
2021/09/15 05:58:34;;;;;;;30.50;12.02;;;;;;;17.76;43.25;94138.84;4983541;28;20037;-76
2021/09/15 06:00:59;;;;;;;18.40;11.23;;;;;;;18.20;42.69;94195.97;4984527;28;20034;-76
2021/09/15 06:03:25;;;;;;;22.38;11.77;;;;;;;18.31;43.61;94201.59;4983250;28;20030;-77
2021/09/15 06:05:50;;;;;;;23.85;11.82;;;;;;;18.45;43.50;94201.91;4988203;28;20430;-76
2021/09/15 06:08:16;;;;;;;26.60;12.95;;;;;;;18.57;42.33;94199.09;4987173;28;20064;-76
2021/09/15 06:10:41;;;;;;;19.63;11.55;;;;;;;18.64;42.37;94201.13;4987187;28;20072;-76
2021/09/15 06:13:07;;;;;;;30.70;12.40;;;;;;;18.73;43.18;94215.19;4982840;28;20129;-76
2021/09/15 06:15:32;;;;;;;19.08;12.88;;;;;;;18.64;43.51;94210.00;4988025;28;20163;-76
2021/09/15 06:17:58;;;;;;;34.67;12.73;;;;;;;18.73;43.18;94213.28;4989255;28;20217;-76
2021/09/15 06:20:25;;;;;;;24.25;12.65;;;;;;;18.65;43.34;94211.56;4988243;28;20045;-75
2021/09/15 06:22:51;;;;;;;29.35;14.68;;;;;;;18.76;42.98;94220.66;4987618;28;20084;-75
2021/09/15 06:25:16;;;;;;;26.77;12.60;;;;;;;18.92;42.86;94217.88;4988294;28;20038;-76
2021/09/15 06:27:42;;;;;;;22.10;13.20;;;;;;;19.07;43.04;94218.94;4990229;28;20030;-75
2021/09/15 06:30:08;;;;;;;25.67;13.50;;;;;;;19.26;41.19;94213.53;4987677;28;20050;-75
2021/09/15 06:32:34;;;;;;;25.05;14.48;;;;;;;18.75;42.73;94208.31;4989744;28;20297;-75
2021/09/15 06:34:59;;;;;;;25.20;14.45;;;;;;;19.06;42.71;94209.31;4993206;28;20045;-75
2021/09/15 06:37:25;;;;;;;20.50;14.75;;;;;;;18.94;41.49;94193.28;4996647;28;20523;-76
2021/09/15 06:39:50;;;;;;;21.88;13.45;;;;;;;19.17;41.60;94210.25;4989091;28;20069;-76
2021/09/15 06:42:16;;;;;;;25.65;14.73;;;;;;;19.16;42.04;94197.94;4987470;28;20085;-76
2021/09/15 06:44:42;;;;;;;24.38;15.38;;;;;;;19.39;42.15;94220.31;4989802;28;20095;-76
2021/09/15 06:47:08;;;;;;;23.63;13.65;;;;;;;19.44;41.31;94219.22;4986778;28;20053;-76
2021/09/15 06:49:33;;;;;;;24.58;12.05;;;;;;;19.57;40.25;94212.53;4987080;28;20169;-77
2021/09/15 06:51:59;;;;;;;20.38;12.77;;;;;;;19.84;39.95;94224.19;4985631;28;20113;-76
2021/09/15 06:54:24;;;;;;;28.08;11.82;;;;;;;19.89;39.78;94229.28;4987918;28;20499;-77
2021/09/15 06:56:50;;;;;;;21.75;12.82;;;;;;;19.83;40.08;94241.50;4990426;28;20031;-76
2021/09/15 06:59:15;;;;;;;17.90;10.63;;;;;;;;;;4987572;28;20408;-76
2021/09/15 07:01:40;;;;;;;22.40;11.30;;;;;;;19.99;40.54;94234.84;4992799;28;20061;-76
2021/09/15 07:04:06;;;;;;;24.75;13.43;;;;;;;20.02;39.64;94233.31;4989570;28;20615;-76
2021/09/15 07:06:31;;;;;;;30.27;13.52;;;;;;;20.09;39.79;94236.16;4988800;28;20038;-76
2021/09/15 07:08:56;;;;;;;16.85;12.35;;;;;;;20.01;40.16;94210.94;4987105;28;20037;-76
2021/09/15 07:11:22;;;;;;;21.38;11.73;;;;;;;20.27;39.94;94226.41;4987163;28;20196;-76
2021/09/15 07:13:48;;;;;;;21.15;12.68;;;;;;;20.21;39.37;94218.97;4987746;28;20657;-76
2021/09/15 07:16:14;;;;;;;21.05;13.32;;;;;;;20.18;39.71;94231.31;4987990;28;20053;-76
2021/09/15 07:18:39;;;;;;;25.17;12.95;;;;;;;20.24;39.52;94212.88;4989050;28;20056;-76
2021/09/15 07:21:06;;;;;;;23.42;13.68;;;;;;;20.13;39.59;94175.66;4995105;28;20046;-76
2021/09/15 07:23:32;;;;;;;29.20;12.95;;;;;;;19.99;39.86;94196.28;4987899;28;20408;-77
2021/09/15 07:25:58;;;;;;;27.00;13.63;;;;;;;20.55;39.82;94226.81;4987411;28;20077;-77
2021/09/15 07:28:24;;;;;;;23.02;13.80;;;;;;;20.70;39.14;94226.97;4987022;28;20169;-76
2021/09/15 07:30:49;;;;;;;23.08;12.00;;;;;;;20.91;38.46;94230.75;4987836;28;20058;-76
2021/09/15 07:33:16;;;;;;;22.83;12.45;;;;;;;21.06;39.07;94229.00;4987694;28;20087;-77
2021/09/15 07:35:43;;;;;;;20.13;11.88;;;;;;;20.98;39.04;94216.53;4987945;28;20069;-76
2021/09/15 07:38:08;;;;;;;24.88;12.93;;;;;;;20.89;39.01;94206.00;4987280;28;20120;-77
2021/09/15 07:40:34;;;;;;;26.50;13.00;;;;;;;20.93;39.21;94228.47;4988656;28;20058;-76
2021/09/15 07:42:59;;;;;;;20.05;11.43;;;;;;;20.86;39.10;94197.84;4987842;28;20041;-77
2021/09/15 07:45:26;;;;;;;20.35;12.18;;;;;;;21.00;38.17;94217.75;4988722;28;20034;-77
2021/09/15 07:47:52;;;;;;;27.73;12.23;;;;;;;21.25;38.64;94236.94;4983304;28;20030;-77
2021/09/15 07:50:17;;;;;;;20.85;12.60;;;;;;;21.36;38.44;94227.00;4984759;28;20034;-75
2021/09/15 07:52:42;;;;;;;30.27;13.02;;;;;;;21.48;38.78;94225.19;4985209;28;20343;-77
2021/09/15 07:55:08;;;;;;;20.02;12.88;;;;;;;21.46;37.88;94230.97;4984258;28;20038;-77
2021/09/15 07:57:34;;;;;;;25.20;12.18;;;;;;;21.46;38.72;94239.84;4984983;28;20477;-76
2021/09/15 07:59:59;;;;;;;23.67;12.82;;;;;;;21.34;38.42;94226.59;4986598;28;20038;-76
2021/09/15 08:02:25;;;;;;;24.00;13.85;;;;;;;21.31;38.46;94226.56;4983819;28;20030;-76
2021/09/15 08:04:50;;;;;;;22.98;12.07;;;;;;;21.30;38.64;94231.22;4985915;28;20046;-76
2021/09/15 08:07:16;;;;;;;20.90;14.00;;;;;;;21.34;38.49;94229.31;4987900;28;20046;-77
2021/09/15 08:09:41;;;;;;;28.60;13.05;;;;;;;21.33;38.54;94226.97;4978224;28;20029;-76
2021/09/15 08:12:07;;;;;;;26.83;12.80;;;;;;;21.39;38.21;94236.31;4986183;28;20069;-77
2021/09/15 08:14:32;;;;;;;27.10;12.25;;;;;;;21.64;38.47;94228.47;4986259;28;20493;-76
2021/09/15 08:16:58;;;;;;;23.05;12.57;;;;;;;21.77;37.59;94227.81;4987169;28;20057;-76
2021/09/15 08:19:27;;;;;;;19.40;12.07;;;;;;;21.80;37.29;94226.31;4986726;28;20400;-76
2021/09/15 08:21:53;;;;;;;23.73;12.50;;;;;;;21.86;37.00;94232.91;4994293;28;20038;-76
2021/09/15 08:24:20;;;;;;;21.17;12.68;;;;;;;21.98;36.49;94229.13;4987612;28;20029;-79
2021/09/15 08:26:45;;;;;;;26.20;13.75;;;;;;;22.09;36.72;94238.91;4987058;28;20049;-76
2021/09/15 08:29:11;;;;;;;16.70;12.07;;;;;;;22.12;36.23;94238.16;4983056;28;20037;-76
2021/09/15 08:31:36;;;;;;;20.70;12.80;;;;;;;22.26;36.52;94232.09;4988034;28;20038;-76
2021/09/15 08:34:02;;;;;;;23.27;13.18;;;;;;;22.27;36.60;94220.88;4987710;28;20045;-77
2021/09/15 08:36:27;;;;;;;19.17;12.18;;;;;;;22.28;36.04;94232.50;4987090;28;20030;-77
2021/09/15 08:38:53;;;;;;;18.92;12.52;;;;;;;22.32;35.37;94229.81;4989240;28;20441;-76
2021/09/15 08:41:18;;;;;;;19.92;12.30;;;;;;;22.25;35.79;94206.91;4987816;28;20113;-76
2021/09/15 08:43:44;;;;;;;21.63;13.65;;;;;;;22.24;35.60;94229.00;4987033;28;20523;-76
2021/09/15 08:46:12;;;;;;;19.90;12.35;;;;;;;22.17;35.93;94226.19;4987355;28;20706;-76
2021/09/15 08:48:40;;;;;;;16.17;12.25;;;;;;;22.20;35.59;94223.50;4985853;28;20093;-77
2021/09/15 08:51:16;;;;;;;19.95;11.77;;;;;;;22.15;34.97;94229.25;4994422;28;20026;-76
2021/09/15 08:53:42;;;;;;;22.35;12.50;;;;;;;22.24;34.77;94216.19;4986872;28;20043;-77
2021/09/15 08:56:08;;;;;;;25.20;13.27;;;;;;;22.23;35.23;94222.00;4985359;28;20034;-76
2021/09/15 08:58:33;;;;;;;20.30;12.63;;;;;;;22.59;35.77;94217.56;4984537;28;20104;-77
2021/09/15 09:01:25;;;;;;;16.05;11.18;;;;;;;22.82;34.83;94214.59;4989975;28;20048;-77
2021/09/15 09:03:53;;;;;;;15.70;11.13;;;;;;;22.83;34.12;94200.63;4988190;28;20029;-76
2021/09/15 09:06:21;;;;;;;18.08;11.43;;;;;;;22.78;33.29;94206.41;4988785;28;20453;-76
2021/09/15 09:08:52;;;;;;;17.88;10.02;;;;;;;22.95;33.09;94213.13;4986593;28;20908;-76
2021/09/15 09:11:20;;;;;;;20.85;10.95;;;;;;;22.79;33.77;94205.25;4987431;28;20038;-76
2021/09/15 09:13:58;;;;;;;17.98;9.98;;;;;;;22.69;33.79;94187.78;4988798;28;20034;-77
2021/09/15 09:16:44;;;;;;;14.63;10.45;;;;;;;23.02;33.17;94200.38;4993641;28;20623;-76
2021/09/15 09:19:15;;;;;;;22.42;10.50;;;;;;;23.04;32.42;94205.41;4985689;28;20045;-76
2021/09/15 09:21:46;;;;;;;12.45;8.80;;;;;;;23.22;32.06;94197.31;4990139;28;20489;-77
2021/09/15 09:24:13;;;;;;;10.88;7.63;;;;;;;23.27;32.96;94203.13;4986738;28;20095;-76
2021/09/15 09:26:49;;;;;;;12.95;8.02;;;;;;;23.24;31.48;94187.63;4987218;28;20589;-77
2021/09/15 09:29:19;;;;;;;9.57;7.10;;;;;;;23.35;30.67;94198.50;4985851;28;20047;-77
2021/09/15 09:32:05;;;;;;;17.08;6.90;;;;;;;23.38;30.92;94186.88;4987775;28;20595;-76
2021/09/15 09:34:41;;;;;;;11.65;7.95;;;;;;;23.44;31.29;94196.19;4985445;28;20056;-76
2021/09/15 09:37:09;;;;;;;10.55;6.50;;;;;;;23.41;31.40;94196.97;4989293;28;20026;-77
2021/09/15 09:39:57;;;;;;;14.48;5.72;;;;;;;23.49;31.70;94188.50;4992969;28;20025;-76
2021/09/15 09:42:22;;;;;;;13.45;6.90;;;;;;;23.47;30.97;94193.47;4990080;28;20041;-76
2021/09/15 09:45:16;;;;;;;8.23;5.57;;;;;;;23.57;30.70;94183.81;4991824;28;20088;-77
2021/09/15 09:47:43;;;;;;;9.38;5.22;;;;;;;23.61;28.52;94183.84;4991102;28;20460;-77
2021/09/15 09:50:09;;;;;;;11.75;6.43;;;;;;;23.62;30.30;94174.53;4989766;28;20560;-78
2021/09/15 09:52:57;;;;;;;12.40;7.03;;;;;;;23.59;29.97;94184.22;4987814;28;20048;-76
2021/09/15 09:55:23;;;;;;;7.10;5.97;;;;;;;23.37;31.53;94160.88;4989175;28;20038;-77
2021/09/15 09:57:53;;;;;;;11.07;6.90;;;;;;;23.65;30.67;94174.53;4989732;28;20378;-77
2021/09/15 10:00:23;;;;;;;8.60;7.60;;;;;;;23.51;30.64;94169.84;4992367;28;20113;-77
2021/09/15 10:02:49;;;;;;;17.23;7.93;;;;;;;23.53;30.54;94166.75;4986618;28;20096;-78
2021/09/15 10:05:16;;;;;;;12.30;7.80;;;;;;;23.57;30.60;94154.75;4986722;28;20547;-77
2021/09/15 10:07:43;;;;;;;9.32;7.22;;;;;;;23.49;30.15;94122.56;4987895;28;20506;-77
2021/09/15 10:10:13;;;;;;;14.27;7.07;;;;;;;23.88;30.56;94163.28;4987524;28;20038;-76
2021/09/15 10:12:39;;;;;;;12.25;7.55;;;;;;;23.88;30.40;94139.63;4989611;28;20080;-77
2021/09/15 10:15:09;;;;;;;8.75;6.65;;;;;;;24.16;29.54;94160.56;4989137;28;20038;-77
2021/09/15 10:17:37;;;;;;;12.35;6.63;;;;;;;24.00;29.46;94120.19;4991661;28;20042;-76
2021/09/15 10:20:08;;;;;;;10.60;7.32;;;;;;;24.33;29.88;94158.97;4985846;28;20041;-76
2021/09/15 10:22:36;;;;;;;10.38;6.78;;;;;;;24.26;29.83;94153.53;4990061;28;20331;-75
2021/09/15 10:25:06;;;;;;;8.77;6.00;;;;;;;24.29;29.28;94150.06;4988784;28;20030;-75
2021/09/15 10:28:04;;;;;;;9.65;5.70;;;;;;;24.39;28.75;94149.25;4986487;28;20026;-76
2021/09/15 10:30:46;;;;;;;13.25;6.80;;;;;;;24.29;28.52;94125.59;4988143;28;20045;-77
2021/09/15 10:33:45;;;;;;;11.10;5.95;;;;;;;24.44;28.14;94143.44;4991458;28;20437;-76
2021/09/15 10:36:13;;;;;;;7.43;5.72;;;;;;;24.43;28.53;94148.09;4988178;28;20524;-76
2021/09/15 10:38:57;;;;;;;12.20;6.03;;;;;;;24.49;28.90;94144.97;4983602;28;20046;-76
2021/09/15 10:41:35;;;;;;;9.15;5.63;;;;;;;24.51;28.20;94137.94;4986759;28;20072;-77
2021/09/15 10:44:13;;;;;;;10.98;5.50;;;;;;;24.47;29.14;94125.53;4982405;28;20137;-76
2021/09/15 10:46:40;;;;;;;15.27;5.78;;;;;;;24.63;28.34;94129.38;4983178;28;20050;-76
2021/09/15 10:49:24;;;;;;;10.35;6.40;;;;;;;24.72;27.62;94127.03;4986011;28;20034;-76
2021/09/15 10:52:08;;;;;;;10.73;6.70;;;;;;;24.71;28.35;94130.09;4983651;28;20677;-76
2021/09/15 10:54:51;;;;;;;10.07;6.57;;;;;;;24.56;27.39;94123.94;4992266;28;20038;-76
2021/09/15 10:57:16;;;;;;;8.85;5.78;;;;;;;24.56;27.49;94121.22;4982100;28;20034;-77
2021/09/15 11:00:00;;;;;;;7.75;6.97;;;;;;;24.53;27.94;94119.31;4985116;28;20053;-77
2021/09/15 11:02:33;;;;;;;12.77;6.63;;;;;;;24.70;29.90;94120.38;4987215;28;20062;-77
2021/09/15 11:05:20;;;;;;;7.63;6.05;;;;;;;24.82;28.20;94109.88;4988030;28;20124;-77
2021/09/15 11:07:48;;;;;;;7.35;6.65;;;;;;;24.98;27.58;94105.91;4983805;28;20057;-77
2021/09/15 11:13:08;;;;;;;6.68;5.70;;;;;;;24.85;29.58;94098.19;4988332;28;20696;-76
2021/09/15 11:15:41;;;;;;;8.23;5.22;;;;;;;24.95;28.45;94076.78;4986788;28;20065;-76
2021/09/15 11:18:07;;;;;;;7.63;5.45;;;;;;;24.85;26.99;94081.09;4983773;28;20275;-77
2021/09/15 11:20:35;;;;;;;6.68;5.80;;;;;;;24.91;26.89;94074.09;4987366;28;20045;-76
2021/09/15 11:23:06;;;;;;;6.28;5.55;;;;;;;24.94;26.67;94075.22;4984026;28;20634;-76
2021/09/15 11:25:32;;;;;;;10.55;5.32;;;;;;;25.09;26.74;94082.13;4993380;28;20551;-77
2021/09/15 11:28:18;;;;;;;7.10;6.40;;;;;;;25.29;27.75;94077.72;4986989;28;20033;-76
2021/09/15 11:30:49;;;;;;;7.97;5.63;;;;;;;25.23;26.02;94073.84;4986611;28;20579;-76
2021/09/15 11:33:15;;;;;;;7.88;6.85;;;;;;;25.22;26.41;94070.34;4987921;28;20109;-77
2021/09/15 11:35:41;;;;;;;12.80;5.65;;;;;;;25.35;27.81;94080.81;4987427;28;20035;-76
2021/09/15 11:38:08;;;;;;;7.75;5.82;;;;;;;25.52;26.99;94080.66;4985544;28;20076;-77